Time;durP1;ratioP1;P1;durP2;ratioP2;P2;SDS_P1;SDS_P2;PMS_P1;PMS_P2;Temp;Humidity;BMP_temperature;BMP_pressure;BME280_temperature;BME280_humidity;BME280_pressure;Samples;Min_cycle;Max_cycle;Signal;HPM_P1;HPM_P2
2022/12/03 03:57:48;;;;;;;23.83;10.40;;;;;;;3.84;79.60;102790.58;1781578;80;21137;-50
2022/12/03 04:00:17;;;;;;;26.17;11.28;;;;;;;4.12;77.80;102798.54;1765629;80;21048;-50
2022/12/03 04:02:43;;;;;;;25.08;11.10;;;;;;;4.20;77.31;102799.70;1758481;80;20978;-51
2022/12/03 04:05:16;;;;;;;25.00;11.12;;;;;;;4.28;76.88;102795.69;1757728;80;21045;-50
2022/12/03 04:07:42;;;;;;;18.42;9.60;;;;;;;4.35;76.65;102794.22;1711448;83;21010;-50
2022/12/03 04:12:55;;;;;;;20.55;9.63;;;;;;;4.48;76.25;102798.97;1710083;82;21073;-50
2022/12/03 04:15:23;;;;;;;22.95;10.60;;;;;;;4.52;75.85;102795.27;1708714;83;21134;-51
2022/12/03 04:20:38;;;;;;;15.98;9.90;;;;;;;4.60;75.57;102798.98;1685730;83;21007;-50
2022/12/03 04:23:04;;;;;;;23.92;9.75;;;;;;;4.64;75.40;102808.58;1653886;85;21103;-50
2022/12/03 04:35:41;;;;;;;13.20;8.53;;;;;;;4.76;75.36;102796.55;1653631;84;21122;-50
2022/12/03 04:36:14;;;;;;;21.12;9.08;;;;;;;4.87;75.23;102797.77;1655764;85;21061;-51
2022/12/03 04:38:41;;;;;;;17.57;8.88;;;;;;;4.91;75.04;102794.47;1663873;84;21069;-50
2022/12/03 04:41:07;;;;;;;22.48;9.88;;;;;;;4.94;75.09;102798.05;1672387;84;21216;-51
2022/12/03 04:44:31;;;;;;;22.40;9.98;;;;;;;4.98;75.04;102804.17;1669369;84;21043;-50
2022/12/03 04:46:02;;;;;;;18.35;8.98;;;;;;;5.03;75.08;102805.19;1654340;84;21193;-51
2022/12/03 04:48:29;;;;;;;19.65;9.35;;;;;;;5.08;74.93;102802.77;1628156;87;21074;-50
2022/12/03 04:50:56;;;;;;;17.00;8.53;;;;;;;5.10;74.89;102808.85;1658981;85;21129;-50
2022/12/03 04:53:22;;;;;;;21.45;9.55;;;;;;;5.15;74.88;102804.73;1658813;85;21078;-51
2022/12/03 04:55:49;;;;;;;19.48;9.18;;;;;;;5.16;74.92;102804.78;1660126;85;21093;-50
2022/12/03 04:58:15;;;;;;;24.47;10.48;;;;;;;5.20;74.89;102809.61;1667027;84;21081;-50
2022/12/03 05:00:42;;;;;;;18.07;9.40;;;;;;;5.24;74.72;102808.48;1662742;85;21166;-50
2022/12/03 05:03:08;;;;;;;19.32;9.93;;;;;;;5.26;74.76;102807.23;1665949;84;21066;-50
2022/12/03 05:05:35;;;;;;;19.73;9.08;;;;;;;5.29;74.68;102813.39;1716179;81;21069;-51
2022/12/03 05:08:01;;;;;;;19.60;10.10;;;;;;;5.23;74.90;102816.18;1712499;82;21082;-52
2022/12/03 05:10:28;;;;;;;20.62;9.95;;;;;;;5.22;75.07;102809.25;1723950;82;21512;-50
2022/12/03 05:12:54;;;;;;;23.55;10.15;;;;;;;5.32;74.82;102815.17;1715055;82;21040;-50
2022/12/03 05:15:21;;;;;;;19.20;9.23;;;;;;;5.34;74.78;102822.55;1720632;82;21017;-51
2022/12/03 05:17:48;;;;;;;19.65;9.38;;;;;;;5.35;74.89;102829.08;1709680;82;21047;-51
2022/12/03 05:22:59;;;;;;;20.23;10.43;;;;;;;5.44;74.84;102827.20;1755598;80;21003;-51
2022/12/03 05:25:26;;;;;;;22.85;9.98;;;;;;;5.47;74.86;102827.29;1755775;80;21081;-51
2022/12/03 05:27:52;;;;;;;20.90;9.65;;;;;;;5.53;75.02;102827.48;1707739;83;21044;-50
2022/12/03 05:30:19;;;;;;;24.15;10.68;;;;;;;5.57;74.85;102832.80;1703671;83;21169;-51
2022/12/03 05:32:46;;;;;;;22.13;10.05;;;;;;;5.58;74.68;102836.27;1702399;82;21055;-51
2022/12/03 05:35:12;;;;;;;20.92;10.03;;;;;;;5.58;74.68;102836.27;1704882;83;21576;-50
2022/12/03 05:37:39;;;;;;;22.17;10.23;;;;;;;5.58;74.73;102838.44;1701343;82;21084;-52
2022/12/03 05:40:07;;;;;;;20.32;9.95;;;;;;;5.57;74.76;102837.08;1713763;81;21056;-50
2022/12/03 05:45:22;;;;;;;18.05;8.85;;;;;;;5.62;74.93;102838.11;1723595;81;21029;-51
2022/12/03 05:47:48;;;;;;;19.05;9.20;;;;;;;5.62;75.01;102833.83;1617169;87;21098;-50
2022/12/03 05:50:15;;;;;;;19.82;8.38;;;;;;;5.65;75.21;102835.61;1636899;86;21101;-51
2022/12/03 05:52:42;;;;;;;24.05;8.73;;;;;;;5.67;75.31;102840.41;1632487;86;21080;-50
2022/12/03 05:55:09;;;;;;;16.17;8.70;;;;;;;5.73;75.62;102840.59;1645661;86;21071;-50
2022/12/03 05:57:37;;;;;;;17.15;8.50;;;;;;;5.77;75.58;102842.44;1638958;86;21076;-51
2022/12/03 06:00:06;;;;;;;14.73;7.55;;;;;;;5.80;75.65;102845.14;1641084;86;21039;-51
2022/12/03 06:02:34;;;;;;;15.05;7.90;;;;;;;5.85;75.82;102847.49;1648681;86;21090;-51
2022/12/03 06:05:01;;;;;;;12.00;5.22;;;;;;;5.92;76.00;102864.03;1633897;86;21530;-51
2022/12/03 06:07:28;;;;;;;6.42;3.67;;;;;;;6.00;76.26;102856.98;1650291;86;21095;-51
2022/12/03 06:09:54;;;;;;;9.90;3.85;;;;;;;6.08;76.68;102854.20;1636547;86;21141;-51
2022/12/03 06:12:21;;;;;;;10.55;3.95;;;;;;;6.21;76.90;102856.33;1638553;86;21043;-51
2022/12/03 06:14:47;;;;;;;8.43;3.83;;;;;;;6.35;76.89;102860.19;1645546;86;21596;-51
2022/12/03 06:17:14;;;;;;;10.30;3.40;;;;;;;6.48;76.92;102862.71;1629877;86;21144;-51
2022/12/03 06:22:21;;;;;;;9.18;3.75;;;;;;;6.63;77.21;102856.69;1794226;78;27079;-57
2022/12/03 06:24:47;;;;;;;7.33;3.35;;;;;;;6.73;76.82;102860.39;1758950;80;21022;-57
2022/12/03 06:27:14;;;;;;;7.92;3.33;;;;;;;6.79;76.55;102860.55;1760962;80;21044;-57
2022/12/03 06:29:41;;;;;;;4.72;2.65;;;;;;;6.84;76.34;102860.27;1755174;80;21006;-57
2022/12/03 06:32:07;;;;;;;5.42;2.87;;;;;;;6.89;76.08;102858.26;1757943;80;21022;-57
2022/12/03 06:34:34;;;;;;;10.13;3.25;;;;;;;6.96;75.87;102864.48;1760883;80;21033;-57
2022/12/03 06:37:00;;;;;;;5.30;2.72;;;;;;;6.99;75.66;102864.54;1757636;80;21044;-57
2022/12/03 06:39:27;;;;;;;7.70;3.45;;;;;;;7.02;75.54;102868.52;1751443;80;21557;-58
2022/12/03 06:41:53;;;;;;;7.25;3.70;;;;;;;7.05;75.37;102864.70;1772198;80;21113;-58
2022/12/03 06:44:20;;;;;;;9.35;3.00;;;;;;;7.09;75.14;102867.86;1765876;80;21043;-58
2022/12/03 06:46:47;;;;;;;8.23;3.22;;;;;;;7.11;75.11;102871.36;1760433;80;21049;-58
2022/12/03 06:49:13;;;;;;;8.53;2.90;;;;;;;7.12;75.08;102878.27;1753571;80;21070;-58
2022/12/03 06:51:40;;;;;;;6.40;2.92;;;;;;;7.16;74.91;102876.22;1768044;80;21525;-57
2022/12/03 06:54:06;;;;;;;4.92;3.25;;;;;;;7.19;74.76;102878.91;1764036;80;21070;-57
2022/12/03 06:56:33;;;;;;;7.80;2.77;;;;;;;7.23;74.57;102875.55;1747445;80;21022;-57
2022/12/03 06:58:59;;;;;;;4.70;3.08;;;;;;;7.26;74.38;102884.67;1759481;80;21477;-57
2022/12/03 07:01:26;;;;;;;5.42;2.20;;;;;;;7.27;74.21;102886.00;1754938;80;21021;-57
2022/12/03 07:03:52;;;;;;;5.60;2.77;;;;;;;7.29;74.16;102892.09;1751576;80;21544;-58
2022/12/03 07:06:19;;;;;;;7.10;3.08;;;;;;;7.34;73.97;102889.62;1744839;80;21054;-57
2022/12/03 07:08:45;;;;;;;5.70;2.77;;;;;;;7.44;73.47;102887.72;1763820;80;21517;-57
2022/12/03 07:11:30;;;;;;;9.58;3.27;;;;;;;7.49;73.24;102892.61;1771485;80;21006;-57
2022/12/03 07:13:59;;;;;;;4.50;2.52;;;;;;;7.40;73.43;102896.25;1752715;80;21078;-57
2022/12/03 07:16:26;;;;;;;6.25;2.33;;;;;;;7.40;73.29;102897.55;1710072;83;21534;-57
2022/12/03 07:18:54;;;;;;;4.08;2.10;;;;;;;7.39;73.09;102901.88;1680023;84;21091;-58
2022/12/03 07:21:21;;;;;;;8.93;2.52;;;;;;;7.37;73.03;102900.08;1661496;85;21554;-57
2022/12/03 07:23:48;;;;;;;7.25;2.77;;;;;;;7.37;73.01;102909.14;1634800;86;21055;-57
2022/12/03 07:26:14;;;;;;;7.67;2.85;;;;;;;7.38;72.89;102904.41;1695366;83;21045;-58
2022/12/03 07:28:41;;;;;;;5.37;2.20;;;;;;;7.40;72.83;102913.97;1708590;83;21073;-57
2022/12/03 07:31:07;;;;;;;6.87;2.72;;;;;;;7.41;72.76;102912.27;1702710;83;21038;-57
2022/12/03 07:33:34;;;;;;;6.95;2.35;;;;;;;7.41;72.74;102913.56;1708482;83;21063;-57
2022/12/03 07:36:00;;;;;;;6.42;2.22;;;;;;;7.42;72.73;102919.19;1659877;85;21097;-58
2022/12/03 07:38:27;;;;;;;5.22;2.30;;;;;;;7.42;72.66;102914.00;1692258;83;21067;-58
2022/12/03 07:40:54;;;;;;;5.95;3.58;;;;;;;7.43;72.62;102917.48;1689809;84;21132;-57
2022/12/03 07:43:20;;;;;;;7.28;2.85;;;;;;;7.42;72.65;102925.66;1696877;83;21069;-58
2022/12/03 07:45:47;;;;;;;6.65;2.60;;;;;;;7.40;72.62;102924.33;1693463;83;21047;-57
2022/12/03 07:48:14;;;;;;;5.12;2.33;;;;;;;7.41;72.59;102925.22;1659597;84;21049;-58
2022/12/03 07:50:40;;;;;;;3.72;2.05;;;;;;;7.40;72.50;102938.98;1707641;83;21015;-58
2022/12/03 07:53:07;;;;;;;5.50;2.50;;;;;;;7.39;72.54;102930.78;1701360;83;21545;-58
2022/12/03 07:55:33;;;;;;;6.78;2.80;;;;;;;7.44;72.32;102939.52;1695069;83;21076;-58
2022/12/03 07:58:00;;;;;;;4.70;2.58;;;;;;;7.44;72.38;102934.34;1694729;83;21168;-57
2022/12/03 08:00:27;;;;;;;8.88;2.95;;;;;;;7.47;72.31;102934.44;1687371;83;21058;-58
2022/12/03 08:02:53;;;;;;;5.33;2.65;;;;;;;7.50;72.29;102938.38;1687695;84;21023;-58
2022/12/03 08:05:20;;;;;;;3.80;2.35;;;;;;;7.49;72.18;102939.23;1693042;83;21090;-58
2022/12/03 08:07:46;;;;;;;6.03;2.33;;;;;;;7.51;72.00;102952.22;1690374;84;21053;-58
2022/12/03 08:10:13;;;;;;;6.65;2.12;;;;;;;7.51;72.03;102945.33;1690882;83;21087;-57
2022/12/03 08:12:39;;;;;;;5.70;2.00;;;;;;;7.54;71.89;102949.72;1690771;83;21059;-58
2022/12/03 08:15:16;;;;;;;3.47;2.05;;;;;;;7.56;71.83;102955.41;1754562;80;21600;-57
2022/12/03 08:17:44;;;;;;;7.47;2.50;;;;;;;7.56;71.58;102954.11;1761493;80;20990;-57
2022/12/03 08:20:17;;;;;;;3.90;2.22;;;;;;;7.53;71.53;102951.43;1763633;80;21042;-58
2022/12/03 08:22:46;;;;;;;9.43;2.75;;;;;;;7.52;71.54;102947.52;1776211;80;21025;-58
2022/12/03 08:25:28;;;;;;;6.78;2.40;;;;;;;7.50;71.62;102958.26;1768451;80;21090;-57
2022/12/03 08:28:04;;;;;;;5.37;2.50;;;;;;;7.50;71.52;102953.92;1775074;80;21069;-57
2022/12/03 08:30:30;;;;;;;6.35;2.58;;;;;;;7.47;71.33;102952.98;1626096;86;21080;-57
2022/12/03 08:32:57;;;;;;;5.33;2.00;;;;;;;7.43;71.22;102946.85;1638671;85;21058;-57
2022/12/03 08:35:26;;;;;;;6.42;2.62;;;;;;;7.41;71.20;102948.53;1648487;85;21116;-58
2022/12/03 08:38:10;;;;;;;7.85;2.80;;;;;;;7.44;71.25;102955.06;1627336;85;21094;-58
2022/12/03 08:40:42;;;;;;;8.10;2.58;;;;;;;7.47;71.21;102956.87;1619964;86;21548;-57
2022/12/03 08:43:20;;;;;;;4.37;2.20;;;;;;;7.50;71.15;102950.48;1642347;85;21136;-58
2022/12/03 08:45:48;;;;;;;7.00;3.05;;;;;;;7.52;71.09;102956.58;1640712;85;21135;-58
2022/12/03 08:48:31;;;;;;;4.97;2.62;;;;;;;7.54;71.05;102951.91;1614993;86;21028;-58
2022/12/03 08:51:21;;;;;;;12.05;4.20;;;;;;;7.59;70.95;102950.29;1621096;86;21055;-58
2022/12/03 08:53:54;;;;;;;5.80;3.40;;;;;;;7.68;70.65;102949.23;1634710;85;21079;-59
2022/12/03 08:56:28;;;;;;;13.38;3.70;;;;;;;7.72;70.41;102953.66;1591168;88;21080;-59
2022/12/03 08:59:25;;;;;;;6.55;3.58;;;;;;;7.76;70.28;102954.19;1599109;88;21531;-59
2022/12/03 09:01:52;;;;;;;6.72;3.55;;;;;;;7.77;69.88;102952.03;1581797;89;21104;-59
2022/12/03 09:04:27;;;;;;;6.67;3.02;;;;;;;7.74;69.68;102952.39;1592031;87;21045;-59
2022/12/03 09:06:54;;;;;;;7.12;2.77;;;;;;;7.72;69.74;102944.99;1604602;87;21542;-59
2022/12/03 09:09:21;;;;;;;7.45;3.08;;;;;;;7.70;69.65;102947.56;1641600;86;21098;-59
2022/12/03 09:11:49;;;;;;;8.20;2.77;;;;;;;7.65;69.51;102949.14;1618075;88;21074;-59
2022/12/03 09:14:16;;;;;;;6.85;2.47;;;;;;;7.57;69.43;102949.78;1607289;88;21111;-59
2022/12/03 09:16:43;;;;;;;8.60;3.08;;;;;;;7.54;69.46;102950.61;1592851;89;21118;-57
2022/12/03 09:19:09;;;;;;;6.65;2.77;;;;;;;7.56;69.45;102954.11;1592560;88;21598;-58
2022/12/03 09:21:36;;;;;;;4.20;2.72;;;;;;;7.46;69.60;102952.09;1625943;86;21109;-58
2022/12/03 09:24:03;;;;;;;5.92;2.75;;;;;;;7.52;69.31;102957.47;1673786;85;21066;-56
2022/12/03 09:26:30;;;;;;;7.42;2.77;;;;;;;7.53;69.11;102946.25;1641061;85;21033;-57
2022/12/03 09:28:56;;;;;;;8.25;3.20;;;;;;;7.52;69.05;102956.17;1679721;84;21182;-59
2022/12/03 09:31:24;;;;;;;4.75;2.98;;;;;;;7.58;68.98;102947.25;1651007;84;20994;-59
2022/12/03 09:33:50;;;;;;;6.97;2.90;;;;;;;7.63;68.81;102948.23;1692023;82;22128;-59
2022/12/03 09:36:17;;;;;;;4.67;2.52;;;;;;;7.65;68.62;102954.33;1750640;80;21082;-59
2022/12/03 09:38:43;;;;;;;5.40;2.55;;;;;;;7.65;68.46;102948.26;1755028;80;21026;-57
2022/12/03 09:41:10;;;;;;;6.75;2.67;;;;;;;7.66;68.26;102951.33;1761442;80;21478;-59
2022/12/03 09:43:36;;;;;;;9.98;2.80;;;;;;;7.65;68.21;102949.14;1764084;80;21002;-59
2022/12/03 09:46:04;;;;;;;8.55;3.50;;;;;;;7.66;68.20;102948.73;1762682;80;21059;-59
2022/12/03 09:48:31;;;;;;;5.90;3.15;;;;;;;7.65;68.14;102951.73;1757784;80;21097;-59
2022/12/03 09:50:57;;;;;;;9.00;2.83;;;;;;;7.64;68.17;102951.70;1764619;80;21023;-57
2022/12/03 09:53:27;;;;;;;5.05;2.37;;;;;;;7.64;68.07;102950.00;1743263;80;21014;-57
2022/12/03 09:55:54;;;;;;;6.17;2.83;;;;;;;7.59;68.19;102954.17;1751201;80;20983;-58
2022/12/03 09:58:21;;;;;;;10.08;3.40;;;;;;;7.62;68.03;102948.20;1726998;80;21135;-58
2022/12/03 10:00:51;;;;;;;8.60;3.22;;;;;;;7.64;67.86;102952.59;1756138;81;21568;-58
2022/12/03 10:03:20;;;;;;;7.80;3.55;;;;;;;7.66;67.75;102953.50;1765310;80;21076;-58
2022/12/03 10:05:47;;;;;;;6.70;4.42;;;;;;;7.68;67.73;102956.13;1758180;80;20999;-58
2022/12/03 10:08:19;;;;;;;7.58;3.62;;;;;;;7.66;67.61;102956.50;1757941;81;21527;-58
2022/12/03 10:10:45;;;;;;;8.25;3.30;;;;;;;7.66;67.58;102960.39;1763148;80;21022;-58
2022/12/03 10:13:16;;;;;;;4.12;2.90;;;;;;;7.66;67.44;102961.28;1773160;80;21054;-58
2022/12/03 10:15:43;;;;;;;7.33;3.45;;;;;;;7.65;67.23;102955.63;1659648;84;21100;-58
2022/12/03 10:18:22;;;;;;;7.10;3.00;;;;;;;7.66;67.19;102962.57;1646834;85;21546;-58
2022/12/03 10:20:48;;;;;;;11.12;4.55;;;;;;;7.65;67.21;102959.51;1598155;88;21641;-59
2022/12/03 10:23:25;;;;;;;7.42;3.27;;;;;;;7.67;67.21;102961.72;1554484;90;21042;-58
2022/12/03 10:25:55;;;;;;;10.63;3.25;;;;;;;7.70;67.23;102957.92;1517048;93;21687;-58
2022/12/03 10:28:36;;;;;;;6.92;3.20;;;;;;;7.73;67.11;102963.16;1513712;93;21209;-58
2022/12/03 10:31:06;;;;;;;9.70;4.50;;;;;;;7.76;67.07;102969.73;1511169;93;21153;-58
2022/12/03 10:33:40;;;;;;;6.42;3.75;;;;;;;7.80;66.96;102967.67;1503398;93;21096;-58
2022/12/03 10:36:20;;;;;;;9.50;3.35;;;;;;;7.81;66.81;102969.85;1511269;93;21105;-58
2022/12/03 10:39:15;;;;;;;4.58;3.00;;;;;;;7.79;66.42;102972.38;1505560;93;21108;-58
2022/12/03 10:41:43;;;;;;;7.92;3.20;;;;;;;7.78;66.24;102978.42;1492687;94;21694;-58
2022/12/03 10:44:16;;;;;;;7.03;3.70;;;;;;;7.74;66.09;102975.30;1494412;94;21601;-58
2022/12/03 10:46:44;;;;;;;7.15;3.80;;;;;;;7.70;66.25;102987.72;1491092;94;21596;-57
2022/12/03 10:49:17;;;;;;;6.17;3.15;;;;;;;7.71;66.30;102977.80;1493832;93;21109;-58
2022/12/03 10:51:45;;;;;;;7.83;3.67;;;;;;;7.69;66.22;102985.95;1474550;95;21573;-58
2022/12/03 10:54:21;;;;;;;9.95;4.60;;;;;;;7.67;66.27;102983.74;1491687;94;21160;-58
2022/12/03 10:56:48;;;;;;;11.53;4.45;;;;;;;7.70;66.04;102989.02;1485580;95;21165;-58
2022/12/03 10:59:22;;;;;;;9.65;3.92;;;;;;;7.72;65.98;102989.94;1493195;95;21123;-58
2022/12/03 11:01:49;;;;;;;5.50;3.60;;;;;;;7.74;65.93;102975.71;1487962;94;21645;-58
2022/12/03 11:04:20;;;;;;;5.53;3.17;;;;;;;7.73;65.88;102978.71;1490090;94;21086;-59
2022/12/03 11:06:47;;;;;;;11.60;3.50;;;;;;;7.72;65.93;102982.16;1467441;97;21200;-58
2022/12/03 11:09:24;;;;;;;6.30;4.10;;;;;;;7.65;65.93;102976.35;1477985;95;21057;-58
2022/12/03 11:11:50;;;;;;;7.83;3.95;;;;;;;7.58;66.12;102987.41;1478406;93;21075;-57
2022/12/03 11:14:55;;;;;;;8.08;4.12;;;;;;;7.52;66.33;102983.38;1506070;92;21146;-58
2022/12/03 11:17:51;;;;;;;5.65;3.58;;;;;;;7.54;66.31;102980.41;1494557;93;21074;-58
2022/12/03 11:20:25;;;;;;;5.33;3.83;;;;;;;7.53;66.33;102983.81;1494579;94;21079;-58
2022/12/03 11:22:54;;;;;;;9.38;3.87;;;;;;;7.47;66.30;102984.95;1520126;91;21128;-58
2022/12/03 11:25:35;;;;;;;6.00;3.50;;;;;;;7.46;66.14;102983.18;1524845;92;21082;-57
2022/12/03 11:28:19;;;;;;;7.25;3.30;;;;;;;7.48;65.98;102980.66;1525157;92;21113;-57
2022/12/03 11:30:55;;;;;;;6.30;3.40;;;;;;;7.43;65.99;102989.59;1523139;93;21146;-58
2022/12/03 11:33:36;;;;;;;11.65;3.25;;;;;;;7.45;65.99;102991.80;1567262;89;21152;-58
2022/12/03 11:36:08;;;;;;;6.45;3.02;;;;;;;7.48;65.76;102993.16;1534242;91;21554;-58
2022/12/03 11:38:44;;;;;;;5.62;3.22;;;;;;;7.47;65.62;102990.13;1529364;92;21184;-58
2022/12/03 11:41:24;;;;;;;11.00;5.62;;;;;;;7.47;65.41;102995.31;1530107;92;21090;-58
2022/12/03 11:44:00;;;;;;;8.18;4.40;;;;;;;7.50;65.36;102990.64;1519969;92;21669;-59
2022/12/03 11:46:43;;;;;;;8.73;3.58;;;;;;;7.51;65.32;102989.37;1529431;92;21069;-58
2022/12/03 11:49:32;;;;;;;7.55;4.20;;;;;;;7.46;65.49;102999.16;1509025;94;21114;-59
2022/12/03 11:52:04;;;;;;;7.65;3.70;;;;;;;7.43;65.71;102997.36;1483161;94;21124;-59
2022/12/03 11:54:32;;;;;;;4.78;3.30;;;;;;;7.50;65.35;102996.67;1590611;86;21037;-59
2022/12/03 11:56:59;;;;;;;5.70;3.10;;;;;;;7.38;65.57;103007.59;1620038;87;21078;-59
2022/12/03 11:59:26;;;;;;;5.80;3.85;;;;;;;7.35;65.78;103001.46;1634874;86;21042;-59
2022/12/03 12:01:53;;;;;;;6.17;3.72;;;;;;;7.33;65.72;103007.02;1630542;86;21580;-59
2022/12/03 12:04:33;;;;;;;7.03;4.35;;;;;;;7.31;65.82;103008.69;1668681;84;21046;-59
2022/12/03 12:07:00;;;;;;;4.95;3.05;;;;;;;7.30;65.86;103004.33;1630603;86;21113;-58
2022/12/03 12:09:52;;;;;;;7.35;3.92;;;;;;;7.33;65.80;103001.84;1596532;88;21102;-59
2022/12/03 12:12:30;;;;;;;;;;;;;;;7.32;65.78;103005.25;1589483;88;21101;-58
2022/12/03 12:14:58;;;;;;;5.30;3.40;;;;;;;7.29;65.70;103006.03;1647065;86;20153;-58
2022/12/03 12:17:35;;;;;;;6.42;3.75;;;;;;;7.28;65.54;103007.30;1646111;85;21529;-59
2022/12/03 12:20:25;;;;;;;6.72;3.87;;;;;;;7.42;65.18;103003.80;1650227;85;21097;-59
2022/12/03 12:22:54;;;;;;;7.03;3.60;;;;;;;7.77;64.01;103010.79;1661577;84;21121;-60
2022/12/03 12:25:34;;;;;;;7.05;3.67;;;;;;;7.97;63.17;103007.86;1655071;84;21094;-59
2022/12/03 12:28:01;;;;;;;6.70;4.00;;;;;;;8.17;62.50;103011.80;1671250;85;21109;-59
2022/12/03 12:30:28;;;;;;;15.98;4.85;;;;;;;7.79;63.34;103025.52;1655910;84;21058;-59
2022/12/03 12:33:21;;;;;;;6.08;3.90;;;;;;;7.35;64.92;103026.06;1665214;84;21401;-59
2022/12/03 12:35:48;;;;;;;5.53;3.90;;;;;;;7.26;65.21;103030.98;1666454;84;21077;-57
2022/12/03 12:38:17;;;;;;;6.42;4.12;;;;;;;7.27;65.40;103032.75;1671050;84;21106;-58
2022/12/03 12:40:48;;;;;;;9.45;4.25;;;;;;;7.28;65.38;103034.48;1657494;85;21036;-57
2022/12/03 12:43:22;;;;;;;8.63;4.90;;;;;;;7.28;65.27;103035.78;1648243;85;21089;-57
2022/12/03 12:45:48;;;;;;;6.10;4.25;;;;;;;7.24;65.20;103030.06;1646655;85;21081;-58
2022/12/03 12:48:30;;;;;;;8.53;4.50;;;;;;;7.24;65.25;103033.53;1646207;85;21102;-58
2022/12/03 12:51:11;;;;;;;7.47;4.97;;;;;;;7.22;65.19;103028.73;1656208;85;21589;-59
2022/12/03 12:53:39;;;;;;;7.37;4.33;;;;;;;7.20;65.22;103028.22;1571611;89;21630;-57
2022/12/03 12:56:23;;;;;;;7.03;3.92;;;;;;;7.16;65.28;103036.33;1587952;89;21153;-58
2022/12/03 12:58:49;;;;;;;6.50;4.33;;;;;;;7.13;65.39;103036.67;1571349;89;21091;-58
2022/12/03 13:01:23;;;;;;;9.40;5.42;;;;;;;7.13;65.47;103041.85;1576911;90;21125;-58
2022/12/03 13:03:50;;;;;;;6.70;4.10;;;;;;;7.11;65.43;103041.78;1621618;86;21063;-58
2022/12/03 13:06:18;;;;;;;7.03;4.75;;;;;;;7.10;65.33;103045.22;1605166;87;21088;-58
2022/12/03 13:08:46;;;;;;;7.20;4.58;;;;;;;7.11;65.30;103046.95;1673436;85;21188;-58
2022/12/03 13:11:44;;;;;;;7.60;4.40;;;;;;;7.13;65.26;103049.61;1650685;85;21123;-60
2022/12/03 13:14:34;;;;;;;8.00;4.80;;;;;;;7.13;65.24;103050.47;1588266;89;21099;-58
2022/12/03 13:17:03;;;;;;;7.53;5.10;;;;;;;7.21;64.88;103056.73;1583039;89;21118;-58
2022/12/03 13:19:32;;;;;;;9.78;5.30;;;;;;;7.19;64.93;103056.27;1591273;89;21099;-56
2022/12/03 13:22:12;;;;;;;10.10;4.87;;;;;;;7.18;64.99;103051.90;1603378;87;21073;-55
2022/12/03 13:24:43;;;;;;;7.75;5.05;;;;;;;7.19;65.00;103056.27;1611769;87;21049;-56
2022/12/03 13:29:57;;;;;;;10.00;4.67;;;;;;;7.21;64.75;103059.33;1571963;89;21616;-57
2022/12/03 13:32:26;;;;;;;;;;;;;;;7.22;64.79;103057.63;1586770;89;21568;-56
2022/12/03 13:34:54;;;;;;;9.33;5.72;;;;;;;7.18;64.96;103053.20;1567952;90;20130;-58
2022/12/03 13:37:25;;;;;;;9.78;6.45;;;;;;;7.18;64.86;103056.67;1533575;91;21601;-58
2022/12/03 13:39:55;;;;;;;14.60;7.80;;;;;;;7.15;64.92;103063.48;1474236;95;21577;-59
2022/12/03 13:42:40;;;;;;;10.48;6.92;;;;;;;7.12;64.91;103060.37;1455349;96;22455;-56
2022/12/03 13:45:18;;;;;;;9.00;5.85;;;;;;;7.10;65.00;103066.34;1459980;96;21701;-60
2022/12/03 13:47:48;;;;;;;9.85;5.90;;;;;;;7.07;65.15;103068.83;1457321;96;21617;-57
2022/12/03 13:50:34;;;;;;;12.00;6.83;;;;;;;7.10;65.15;103068.93;1444062;98;22108;-58
2022/12/03 13:53:24;;;;;;;10.38;5.25;;;;;;;7.12;65.17;103076.33;1467519;96;21096;-57
2022/12/03 13:56:31;;;;;;;9.48;5.70;;;;;;;7.15;65.16;103069.95;1473488;96;21093;-57
2022/12/03 13:58:59;;;;;;;9.85;6.60;;;;;;;7.18;65.06;103077.80;1421118;100;21145;-57
2022/12/03 14:01:26;;;;;;;10.82;6.72;;;;;;;7.15;64.85;103076.42;1449711;98;21712;-57
2022/12/03 14:03:53;;;;;;;10.05;5.97;;;;;;;7.07;65.05;103080.47;1443087;97;21135;-57
2022/12/03 14:06:20;;;;;;;9.08;6.10;;;;;;;7.03;65.14;103086.39;1450000;97;21329;-56
2022/12/03 14:08:46;;;;;;;10.05;6.65;;;;;;;7.00;65.20;103083.73;1416513;100;21663;-55
2022/12/03 14:12:24;;;;;;;10.38;6.15;;;;;;;6.99;65.38;103092.31;1425625;99;21147;-58
2022/12/03 14:13:42;;;;;;;9.58;6.65;;;;;;;6.99;65.29;103089.73;1427652;98;21241;-59
2022/12/03 14:16:08;;;;;;;12.37;7.15;;;;;;;6.98;65.28;103085.40;1421491;99;21122;-57
2022/12/03 14:18:35;;;;;;;13.20;8.03;;;;;;;6.99;65.35;103092.31;1426031;99;21138;-57
2022/12/03 14:21:01;;;;;;;15.30;7.58;;;;;;;6.98;65.42;103093.16;1424927;99;21128;-58
2022/12/03 14:23:28;;;;;;;11.12;7.45;;;;;;;7.01;65.62;103096.71;1435190;98;21158;-58
2022/12/03 14:25:55;;;;;;;10.63;6.87;;;;;;;7.02;65.56;103089.83;1433765;98;21688;-56
2022/12/03 14:28:21;;;;;;;10.43;6.62;;;;;;;6.98;65.57;103093.16;1420128;99;21122;-57
2022/12/03 14:30:48;;;;;;;12.43;7.70;;;;;;;6.93;65.75;103101.19;1424925;98;21148;-62
2022/12/03 14:33:14;;;;;;;13.70;7.60;;;;;;;6.95;65.96;103106.00;1502392;92;21250;-58
2022/12/03 14:35:41;;;;;;;12.23;6.72;;;;;;;6.94;65.86;103112.02;1504273;90;21686;-64
2022/12/03 14:38:08;;;;;;;12.70;6.58;;;;;;;6.91;65.75;103117.09;1647885;84;21958;-55
2022/12/03 14:40:34;;;;;;;15.90;8.10;;;;;;;6.88;65.70;103124.78;1702101;83;21088;-59
2022/12/03 14:43:02;;;;;;;13.65;7.47;;;;;;;6.86;65.85;103132.91;1690369;83;21580;-57
2022/12/03 14:45:29;;;;;;;13.13;8.20;;;;;;;6.85;65.93;103135.02;1707391;80;21098;-56
2022/12/03 14:47:56;;;;;;;14.15;8.85;;;;;;;6.85;66.03;103128.14;1755289;80;21482;-62
2022/12/03 14:50:24;;;;;;;11.97;6.47;;;;;;;6.87;65.96;103133.36;1761438;80;21052;-59
2022/12/03 14:52:51;;;;;;;12.93;6.90;;;;;;;6.90;65.99;103137.35;1751647;80;21048;-57
2022/12/03 14:55:17;;;;;;;9.15;6.42;;;;;;;6.87;65.73;103144.59;1752370;80;21520;-59
2022/12/03 14:57:44;;;;;;;11.97;7.00;;;;;;;6.79;65.67;103140.89;1755561;80;20982;-63
2022/12/03 15:00:12;;;;;;;12.40;7.62;;;;;;;6.78;65.71;103155.09;1747356;81;21038;-64
2022/12/03 15:02:38;;;;;;;9.80;6.15;;;;;;;6.76;65.65;103163.21;1756899;80;21483;-57
2022/12/03 15:05:06;;;;;;;9.93;7.28;;;;;;;6.71;65.68;103157.00;1772997;80;21023;-56
2022/12/03 15:07:37;;;;;;;13.20;7.47;;;;;;;6.73;65.80;103150.16;1751427;80;21510;-59
2022/12/03 15:10:05;;;;;;;13.05;7.40;;;;;;;6.71;65.81;103159.59;1771400;80;21092;-58
2022/12/03 15:12:32;;;;;;;11.25;7.60;;;;;;;6.67;65.87;103166.38;1755891;80;20983;-56
2022/12/03 15:14:59;;;;;;;14.18;7.70;;;;;;;6.67;65.87;103164.20;1759234;80;21060;-58
2022/12/03 15:17:25;;;;;;;8.13;6.50;;;;;;;6.69;65.88;103171.59;1748768;80;20998;-59
2022/12/03 15:19:52;;;;;;;10.00;6.37;;;;;;;6.68;65.76;103175.03;1738946;80;21081;-57
2022/12/03 15:22:18;;;;;;;9.83;5.90;;;;;;;6.67;65.57;103175.44;1751329;81;21478;-57
2022/12/03 15:24:45;;;;;;;11.80;6.35;;;;;;;6.68;65.53;103181.50;1761575;80;21006;-56
2022/12/03 15:27:11;;;;;;;10.65;7.05;;;;;;;6.68;65.47;103181.50;1753819;80;21501;-56
2022/12/03 15:31:00;;;;;;;12.05;6.87;;;;;;;6.65;65.59;103181.38;1802451;78;27109;-57
2022/12/03 15:33:27;;;;;;;10.53;6.17;;;;;;;6.62;65.60;103180.86;1772633;80;21050;-57
2022/12/03 15:35:53;;;;;;;11.28;6.87;;;;;;;6.64;65.43;103180.90;1747441;80;20995;-57
2022/12/03 15:38:20;;;;;;;8.90;6.60;;;;;;;6.64;65.43;103193.84;1753120;81;21112;-57
2022/12/03 15:40:46;;;;;;;10.45;6.40;;;;;;;6.63;65.27;103191.69;1764022;81;21033;-57
2022/12/03 15:43:13;;;;;;;9.65;6.50;;;;;;;6.64;65.29;103197.31;1766405;80;21501;-57
2022/12/03 15:45:39;;;;;;;9.50;6.45;;;;;;;6.66;65.13;103202.56;1754822;80;21053;-57
2022/12/03 15:51:13;;;;;;;13.43;7.70;;;;;;;6.66;64.91;103202.13;1652775;83;21726;-57
2022/12/03 15:53:39;;;;;;;11.30;6.50;;;;;;;6.65;64.84;103208.55;1683264;84;21085;-57
2022/12/03 15:56:06;;;;;;;8.68;6.05;;;;;;;6.63;64.71;103209.80;1673050;84;21543;-57
2022/12/03 15:58:33;;;;;;;8.48;5.87;;;;;;;6.63;64.67;103202.44;1711998;80;21117;-57
2022/12/03 16:01:00;;;;;;;10.85;6.75;;;;;;;6.63;64.70;103214.08;1717103;80;21032;-57
2022/12/03 16:03:26;;;;;;;11.57;6.05;;;;;;;6.59;64.52;103213.97;1718852;81;21075;-58
2022/12/03 16:05:53;;;;;;;10.10;5.35;;;;;;;6.63;64.84;103221.44;1730006;82;21068;-57
2022/12/03 16:08:19;;;;;;;8.80;5.97;;;;;;;6.69;65.08;103223.34;1732594;80;21081;-57
2022/12/03 16:10:46;;;;;;;7.20;4.90;;;;;;;6.73;64.85;103231.67;1726494;80;21056;-55